Time;durP1;ratioP1;P1;durP2;ratioP2;P2;SDS_P1;SDS_P2;PMS_P1;PMS_P2;Temp;Humidity;BMP_temperature;BMP_pressure;BME280_temperature;BME280_humidity;BME280_pressure;Samples;Min_cycle;Max_cycle;Signal;HPM_P1;HPM_P2
2023/12/07 00:01:02;;;;;;;15.17;5.10;;;1.20;99.90;;;;;;5017572;28;20210;-61
2023/12/07 00:03:27;;;;;;;12.77;5.30;;;1.20;99.90;;;;;;5024302;28;20190;-61
2023/12/07 00:05:53;;;;;;;8.30;5.27;;;1.20;99.90;;;;;;5031065;28;20218;-61
2023/12/07 00:08:18;;;;;;;13.57;6.33;;;1.20;99.90;;;;;;5014490;28;20265;-61
2023/12/07 00:10:44;;;;;;;12.00;5.63;;;1.20;99.90;;;;;;5017493;28;20210;-57
2023/12/07 00:13:09;;;;;;;12.77;5.23;;;1.20;99.90;;;;;;5014316;28;20205;-58
2023/12/07 00:15:34;;;;;;;8.37;4.73;;;1.20;99.90;;;;;;5013360;28;20661;-61
2023/12/07 00:18:00;;;;;;;15.90;5.80;;;1.20;99.90;;;;;;5023035;28;20261;-61
2023/12/07 00:20:26;;;;;;;12.60;4.83;;;1.20;99.90;;;;;;5027741;28;20686;-61
2023/12/07 00:22:51;;;;;;;8.10;4.90;;;1.10;99.90;;;;;;5014328;28;20182;-62
2023/12/07 00:25:17;;;;;;;9.93;4.87;;;1.10;99.90;;;;;;5014141;28;20194;-57
2023/12/07 00:27:42;;;;;;;8.30;4.07;;;1.20;99.90;;;;;;5012559;28;20187;-57
2023/12/07 00:30:08;;;;;;;12.33;5.50;;;1.10;99.90;;;;;;5026192;28;20210;-60
2023/12/07 00:32:34;;;;;;;10.27;5.30;;;1.10;99.90;;;;;;5022923;28;20174;-61
2023/12/07 00:34:59;;;;;;;10.00;4.80;;;1.10;99.90;;;;;;5033148;28;20464;-61
2023/12/07 00:37:25;;;;;;;9.27;5.00;;;1.10;99.90;;;;;;5019423;28;20508;-61
2023/12/07 00:39:50;;;;;;;7.07;3.30;;;1.10;99.90;;;;;;5013631;28;20234;-61
2023/12/07 00:42:16;;;;;;;10.57;4.20;;;1.20;99.90;;;;;;5014085;28;20206;-62
2023/12/07 00:44:42;;;;;;;9.63;4.30;;;1.20;99.90;;;;;;5014354;28;20190;-61
2023/12/07 00:47:07;;;;;;;14.13;4.77;;;1.10;99.90;;;;;;5022383;28;20186;-61
2023/12/07 00:49:33;;;;;;;7.67;4.10;;;1.10;99.90;;;;;;5033765;28;20178;-61
2023/12/07 00:51:59;;;;;;;10.73;5.33;;;1.10;99.90;;;;;;5024540;28;20297;-62
2023/12/07 00:54:24;;;;;;;10.53;4.77;;;1.10;99.90;;;;;;5013746;28;20217;-61
2023/12/07 00:56:50;;;;;;;10.03;4.50;;;1.20;99.90;;;;;;5020950;28;20187;-57
2023/12/07 00:59:15;;;;;;;10.70;5.03;;;1.20;99.90;;;;;;5030094;28;20182;-57
2023/12/07 01:01:40;;;;;;;11.00;4.73;;;1.20;99.90;;;;;;5021243;28;20753;-58
2023/12/07 01:04:06;;;;;;;12.93;4.60;;;1.20;99.90;;;;;;5016904;28;20194;-57
2023/12/07 01:06:31;;;;;;;8.90;4.30;;;1.20;99.90;;;;;;5012320;28;20194;-57
2023/12/07 01:08:57;;;;;;;7.43;4.30;;;1.20;99.90;;;;;;5011712;28;20198;-57
2023/12/07 01:11:22;;;;;;;8.97;4.67;;;1.20;99.90;;;;;;5013033;28;20698;-61
2023/12/07 01:13:48;;;;;;;9.63;4.10;;;1.20;99.90;;;;;;5013281;28;20628;-61
2023/12/07 01:16:14;;;;;;;11.07;5.30;;;1.10;99.90;;;;;;5022056;28;20179;-61
2023/12/07 01:18:40;;;;;;;9.80;4.70;;;1.20;99.90;;;;;;5018061;28;20468;-61
2023/12/07 01:21:05;;;;;;;9.43;4.97;;;1.10;99.90;;;;;;5013176;28;20187;-62
2023/12/07 01:23:31;;;;;;;7.80;5.00;;;1.10;99.90;;;;;;5026279;28;20190;-61
2023/12/07 01:25:57;;;;;;;7.73;4.73;;;1.10;99.90;;;;;;5012701;28;20307;-57
2023/12/07 01:28:22;;;;;;;8.83;4.90;;;1.10;99.90;;;;;;5011579;28;20570;-57
2023/12/07 01:30:48;;;;;;;22.23;5.80;;;1.00;99.90;;;;;;5012002;28;20203;-60
2023/12/07 01:33:13;;;;;;;9.30;5.03;;;1.00;99.90;;;;;;5026177;28;20524;-61
2023/12/07 01:35:39;;;;;;;10.53;5.43;;;1.00;99.90;;;;;;5012445;28;20253;-58
2023/12/07 01:38:04;;;;;;;11.27;5.70;;;1.00;99.90;;;;;;5018243;28;20651;-57
2023/12/07 01:40:30;;;;;;;10.60;5.50;;;0.90;99.90;;;;;;5013231;28;20254;-60
2023/12/07 01:42:56;;;;;;;10.07;5.10;;;1.00;99.90;;;;;;5013434;28;20186;-61
2023/12/07 01:45:21;;;;;;;10.63;5.03;;;0.90;99.90;;;;;;5025667;28;20233;-57
2023/12/07 01:47:50;;;;;;;9.67;5.03;;;0.90;99.90;;;;;;5011911;28;20194;-57
2023/12/07 01:50:16;;;;;;;8.57;4.77;;;0.90;99.90;;;;;;5018900;28;20194;-57
2023/12/07 01:52:47;;;;;;;11.33;5.20;;;0.90;99.90;;;;;;5031258;28;20424;-57
2023/12/07 01:55:14;;;;;;;12.83;5.20;;;0.80;99.90;;;;;;5019433;28;20750;-57
2023/12/07 01:57:41;;;;;;;8.47;4.60;;;0.70;99.90;;;;;;5016948;28;20418;-57
2023/12/07 02:00:09;;;;;;;10.63;4.50;;;0.70;99.90;;;;;;5011125;28;20832;-61
2023/12/07 02:02:35;;;;;;;10.13;5.20;;;0.60;99.90;;;;;;5012769;28;20517;-61
2023/12/07 02:05:01;;;;;;;7.67;4.87;;;0.60;99.90;;;;;;5013262;28;20798;-61
2023/12/07 02:07:27;;;;;;;11.63;6.10;;;0.60;99.90;;;;;;5011038;28;20438;-57
2023/12/07 02:09:53;;;;;;;10.63;4.60;;;0.60;99.90;;;;;;5011563;28;20479;-57
2023/12/07 02:12:19;;;;;;;7.33;4.00;;;0.50;99.90;;;;;;5015636;28;20890;-60
2023/12/07 02:14:45;;;;;;;10.70;5.70;;;0.50;99.90;;;;;;5020327;28;20433;-61
2023/12/07 02:17:28;;;;;;;10.37;4.43;;;0.60;99.90;;;;;;5024800;28;20206;-57
2023/12/07 02:20:30;;;;;;;9.13;5.07;;;0.60;99.90;;;;;;5014455;28;20414;-57
2023/12/07 02:23:00;;;;;;;13.50;5.93;;;0.60;99.90;;;;;;5014327;28;20919;-61
2023/12/07 02:25:48;;;;;;;14.13;6.00;;;0.60;99.90;;;;;;5019422;28;20501;-61
2023/12/07 02:28:13;;;;;;;11.73;5.23;;;0.60;99.90;;;;;;5019103;28;20431;-61
2023/12/07 02:30:39;;;;;;;8.50;4.40;;;0.70;99.90;;;;;;5032719;28;20468;-61
2023/12/07 02:33:04;;;;;;;9.77;5.03;;;0.60;99.90;;;;;;5018690;28;20179;-61
2023/12/07 02:35:31;;;;;;;13.90;5.63;;;0.60;99.90;;;;;;5012077;28;20266;-57
2023/12/07 02:37:57;;;;;;;9.07;5.20;;;0.60;99.90;;;;;;5011212;28;20179;-57
2023/12/07 02:40:26;;;;;;;9.97;5.70;;;0.60;99.90;;;;;;5014631;28;20588;-60
2023/12/07 02:42:53;;;;;;;14.73;5.80;;;0.60;99.90;;;;;;5016931;28;20418;-61
2023/12/07 02:45:18;;;;;;;7.93;5.13;;;0.50;99.90;;;;;;5028145;28;20956;-61
2023/12/07 02:47:45;;;;;;;9.33;4.10;;;0.50;99.90;;;;;;5017618;28;20418;-61
2023/12/07 02:50:12;;;;;;;10.07;4.93;;;0.40;99.90;;;;;;5027879;28;20270;-61
2023/12/07 02:52:38;;;;;;;12.60;5.70;;;0.40;99.90;;;;;;5015821;28;20464;-61
2023/12/07 02:55:04;;;;;;;13.53;5.90;;;0.40;99.90;;;;;;5023949;28;20421;-61
2023/12/07 02:57:30;;;;;;;9.67;4.90;;;0.40;99.90;;;;;;5034109;28;20424;-61
2023/12/07 02:59:56;;;;;;;10.87;5.10;;;0.40;99.90;;;;;;5016101;28;20923;-61
2023/12/07 03:02:22;;;;;;;13.90;5.57;;;0.30;99.90;;;;;;5014051;28;20496;-57
2023/12/07 03:04:47;;;;;;;12.73;5.70;;;0.30;99.90;;;;;;5022655;28;20504;-58
2023/12/07 03:07:13;;;;;;;11.33;5.83;;;0.30;99.90;;;;;;5027702;28;20206;-61
2023/12/07 03:09:39;;;;;;;10.60;4.90;;;0.20;99.90;;;;;;5023827;28;20201;-61
2023/12/07 03:12:05;;;;;;;11.00;5.40;;;0.30;99.90;;;;;;5027127;28;20758;-62
2023/12/07 03:14:30;;;;;;;12.63;5.87;;;0.30;99.90;;;;;;5025689;28;20175;-61
2023/12/07 03:16:55;;;;;;;14.23;6.10;;;0.20;99.90;;;;;;5016429;28;20186;-61
2023/12/07 03:19:21;;;;;;;13.03;6.30;;;0.20;99.90;;;;;;5035532;28;20218;-61
2023/12/07 03:21:47;;;;;;;10.10;5.00;;;0.20;99.90;;;;;;5020845;28;20189;-57
2023/12/07 03:24:13;;;;;;;10.13;5.53;;;0.10;99.90;;;;;;5021513;28;20187;-57
2023/12/07 03:26:38;;;;;;;9.37;4.83;;;0.20;99.90;;;;;;5033417;28;20465;-57
2023/12/07 03:29:04;;;;;;;8.83;4.87;;;0.10;99.90;;;;;;5014035;28;20190;-57
2023/12/07 03:31:30;;;;;;;7.73;3.50;;;0.10;99.90;;;;;;5027524;28;20678;-57
2023/12/07 03:33:56;;;;;;;10.47;5.27;;;0.10;99.90;;;;;;5014225;28;20262;-57
2023/12/07 03:36:22;;;;;;;8.00;4.87;;;0.10;99.90;;;;;;5014659;28;20644;-61
2023/12/07 03:38:48;;;;;;;11.33;4.53;;;0.20;99.90;;;;;;5015523;28;20525;-61
2023/12/07 03:41:14;;;;;;;10.57;5.47;;;0.20;99.90;;;;;;5015201;28;20504;-61
2023/12/07 03:43:39;;;;;;;9.50;4.50;;;0.20;99.90;;;;;;5014962;28;20430;-62
2023/12/07 03:46:06;;;;;;;14.30;5.40;;;0.20;99.90;;;;;;5015473;28;20628;-61
2023/12/07 03:48:32;;;;;;;12.37;5.67;;;0.20;99.90;;;;;;5027849;28;20195;-61
2023/12/07 03:50:58;;;;;;;10.03;5.60;;;0.20;99.90;;;;;;5027654;28;20473;-57
2023/12/07 03:53:23;;;;;;;16.07;6.30;;;0.20;99.90;;;;;;5025816;28;20793;-57
2023/12/07 03:55:49;;;;;;;11.93;4.90;;;0.20;99.90;;;;;;5013999;28;20183;-62
2023/12/07 03:58:14;;;;;;;10.23;5.23;;;0.20;99.90;;;;;;5015026;28;20209;-61
2023/12/07 04:00:41;;;;;;;5.77;4.47;;;0.20;99.90;;;;;;5015290;28;20258;-61
2023/12/07 04:03:06;;;;;;;9.27;4.60;;;0.20;99.90;;;;;;5028087;28;20670;-61
2023/12/07 04:05:32;;;;;;;11.90;5.40;;;0.30;99.90;;;;;;5014959;28;20418;-60
2023/12/07 04:07:58;;;;;;;10.07;5.10;;;0.30;99.90;;;;;;5001737;28;20214;-60
2023/12/07 04:10:24;;;;;;;18.63;5.00;;;0.20;99.90;;;;;;5014677;28;20539;-57
2023/12/07 04:12:49;;;;;;;10.13;5.67;;;0.20;99.90;;;;;;5012561;28;20190;-57
2023/12/07 04:15:15;;;;;;;16.83;6.73;;;0.10;99.90;;;;;;5026150;28;20417;-57
2023/12/07 04:17:40;;;;;;;12.67;5.43;;;0.10;99.90;;;;;;5013052;28;20191;-57
2023/12/07 04:20:07;;;;;;;14.63;6.67;;;0.10;99.90;;;;;;5012943;28;20194;-57
2023/12/07 04:22:33;;;;;;;7.83;4.77;;;0.20;99.90;;;;;;5012839;28;20509;-57
2023/12/07 04:24:58;;;;;;;10.23;5.50;;;0.10;99.90;;;;;;5025598;28;20428;-57
2023/12/07 04:27:24;;;;;;;12.07;5.80;;;0.00;99.90;;;;;;5019484;28;20613;-57
2023/12/07 04:29:49;;;;;;;10.00;5.60;;;0.00;99.90;;;;;;5032288;28;20198;-57
2023/12/07 04:32:15;;;;;;;13.93;5.37;;;-0.10;99.90;;;;;;5021348;28;20182;-60
2023/12/07 04:34:40;;;;;;;13.90;6.77;;;-0.20;99.90;;;;;;5034481;28;20229;-61
2023/12/07 04:37:06;;;;;;;10.97;5.67;;;-0.20;99.90;;;;;;5020819;28;20191;-61
2023/12/07 04:39:31;;;;;;;15.27;6.63;;;-0.30;99.90;;;;;;5021403;28;20273;-61
2023/12/07 04:41:56;;;;;;;12.20;5.60;;;-0.30;99.90;;;;;;5014391;28;20218;-61
2023/12/07 04:44:24;;;;;;;12.10;5.70;;;-0.30;99.90;;;;;;5014586;28;20241;-61
2023/12/07 04:46:49;;;;;;;9.60;5.33;;;-0.40;99.90;;;;;;4999853;28;20242;-57
2023/12/07 04:49:15;;;;;;;10.63;5.73;;;-0.40;99.90;;;;;;5012693;28;20769;-58
2023/12/07 04:51:41;;;;;;;14.73;6.20;;;-0.40;99.90;;;;;;5006936;28;20218;-61
2023/12/07 04:54:07;;;;;;;22.13;7.70;;;-0.40;99.90;;;;;;5020468;28;20185;-61
2023/12/07 04:56:32;;;;;;;15.63;6.53;;;-0.30;99.90;;;;;;5013049;28;20422;-57
2023/12/07 04:58:58;;;;;;;9.17;5.00;;;-0.30;99.90;;;;;;5024738;28;20232;-57
2023/12/07 05:01:23;;;;;;;12.90;6.27;;;-0.40;99.90;;;;;;5013871;28;20191;-60
2023/12/07 05:03:49;;;;;;;12.70;6.83;;;-0.30;99.90;;;;;;5013716;28;20222;-60
2023/12/07 05:06:14;;;;;;;15.70;7.00;;;-0.30;99.90;;;;;;5013977;28;20194;-60
2023/12/07 05:08:40;;;;;;;13.70;7.30;;;-0.30;99.90;;;;;;5018909;28;20186;-60
2023/12/07 05:11:06;;;;;;;12.43;6.30;;;-0.20;99.90;;;;;;5018603;28;20733;-61
2023/12/07 05:13:33;;;;;;;11.30;6.43;;;-0.30;99.90;;;;;;5024579;28;20182;-61
2023/12/07 05:15:59;;;;;;;10.40;6.07;;;-0.30;99.90;;;;;;5013356;28;20461;-61
2023/12/07 05:18:25;;;;;;;14.10;6.47;;;-0.30;99.90;;;;;;5013710;28;20814;-61
2023/12/07 05:20:50;;;;;;;15.83;6.60;;;-0.40;99.90;;;;;;5013184;28;20501;-57
2023/12/07 05:23:16;;;;;;;12.37;6.27;;;-0.50;99.90;;;;;;5011851;28;20190;-57
2023/12/07 05:25:41;;;;;;;13.00;7.00;;;-0.60;99.90;;;;;;5012123;28;20191;-57
2023/12/07 05:28:07;;;;;;;10.60;6.03;;;-0.70;99.90;;;;;;5011427;28;20191;-57
2023/12/07 05:30:32;;;;;;;16.27;7.40;;;-0.80;99.90;;;;;;5025539;28;20281;-60
2023/12/07 05:32:58;;;;;;;12.23;6.13;;;-0.80;99.90;;;;;;5013414;28;20194;-60
2023/12/07 05:35:23;;;;;;;13.50;7.97;;;-0.80;99.90;;;;;;5013489;28;20398;-60
2023/12/07 05:37:49;;;;;;;17.27;8.07;;;-0.90;99.90;;;;;;5013661;28;20202;-61
2023/12/07 05:40:15;;;;;;;12.80;7.37;;;-0.90;99.90;;;;;;5026906;28;20227;-61
2023/12/07 05:42:41;;;;;;;14.63;6.67;;;-0.90;99.90;;;;;;5013715;28;20199;-61
2023/12/07 05:45:07;;;;;;;12.77;7.33;;;-1.00;99.90;;;;;;5019849;28;20507;-57
2023/12/07 05:47:32;;;;;;;11.00;6.93;;;-0.90;99.90;;;;;;5018941;28;20662;-57
2023/12/07 05:49:59;;;;;;;14.33;7.37;;;-0.70;99.90;;;;;;5016399;28;20425;-57
2023/12/07 05:52:25;;;;;;;13.07;6.47;;;-0.60;99.90;;;;;;5020841;28;20558;-60
2023/12/07 05:54:51;;;;;;;13.20;6.30;;;-0.60;99.90;;;;;;5029223;28;20425;-60
2023/12/07 05:57:17;;;;;;;16.23;6.17;;;-0.50;99.90;;;;;;5021277;28;20183;-60
2023/12/07 05:59:43;;;;;;;12.90;6.80;;;-0.60;99.90;;;;;;5013385;28;20222;-60
2023/12/07 06:02:08;;;;;;;18.90;6.80;;;-0.60;99.90;;;;;;5008946;28;20190;-61
2023/12/07 06:04:34;;;;;;;15.87;6.23;;;-0.70;99.90;;;;;;5018944;28;20491;-61
2023/12/07 06:06:59;;;;;;;12.97;5.80;;;-0.80;99.90;;;;;;5013002;28;20277;-61
2023/12/07 06:09:25;;;;;;;15.97;5.90;;;-0.80;99.90;;;;;;5009678;28;20672;-61
2023/12/07 06:11:51;;;;;;;14.73;6.73;;;-0.90;99.90;;;;;;5025518;28;20233;-61
2023/12/07 06:14:16;;;;;;;10.57;5.63;;;-1.00;99.90;;;;;;5007041;28;20168;-61
2023/12/07 06:16:42;;;;;;;13.93;6.40;;;-1.00;99.90;;;;;;5023392;28;20513;-60
2023/12/07 06:19:07;;;;;;;11.33;6.80;;;-1.00;99.90;;;;;;5004778;28;20209;-60
2023/12/07 06:21:33;;;;;;;20.60;6.30;;;-1.10;99.90;;;;;;5035016;28;20197;-57
2023/12/07 06:23:59;;;;;;;24.93;6.97;;;-1.10;99.90;;;;;;5015526;28;20187;-57
2023/12/07 06:26:25;;;;;;;12.00;5.67;;;-1.20;99.90;;;;;;5023660;28;20193;-60
2023/12/07 06:28:51;;;;;;;16.40;7.37;;;-1.20;99.90;;;;;;5036788;28;20199;-60
2023/12/07 06:31:19;;;;;;;13.67;7.10;;;-1.30;99.90;;;;;;5024368;28;20794;-57
2023/12/07 06:33:45;;;;;;;14.83;8.43;;;-1.30;99.90;;;;;;5027625;28;20452;-57
2023/12/07 06:36:11;;;;;;;15.10;7.17;;;-1.30;99.90;;;;;;5013409;28;20540;-57
2023/12/07 06:38:38;;;;;;;15.67;7.40;;;-1.30;99.90;;;;;;5021398;28;20628;-56
2023/12/07 06:41:03;;;;;;;14.73;7.07;;;-1.40;99.90;;;;;;5012094;28;20319;-57
2023/12/07 06:43:29;;;;;;;16.07;7.97;;;-1.40;99.90;;;;;;5023229;28;20422;-57
2023/12/07 06:45:55;;;;;;;16.30;7.40;;;-1.50;99.90;;;;;;5015773;28;20667;-60
2023/12/07 06:48:20;;;;;;;17.77;6.90;;;-1.50;99.90;;;;;;5016673;28;20648;-61
2023/12/07 06:50:45;;;;;;;15.60;8.03;;;-1.60;99.90;;;;;;5016236;28;20207;-57
2023/12/07 06:53:11;;;;;;;17.13;7.50;;;-1.70;99.90;;;;;;5017754;28;20225;-56
2023/12/07 06:55:36;;;;;;;18.83;7.67;;;-1.70;99.90;;;;;;5027200;28;20604;-60
2023/12/07 06:58:02;;;;;;;15.50;7.10;;;-1.70;99.90;;;;;;5022967;28;20190;-61
2023/12/07 07:00:27;;;;;;;13.73;6.17;;;-1.70;99.90;;;;;;5024134;28;20274;-59
2023/12/07 07:02:53;;;;;;;12.67;7.40;;;-1.70;99.90;;;;;;5016561;28;20179;-60
2023/12/07 07:05:19;;;;;;;16.07;7.73;;;-1.70;99.90;;;;;;5016285;28;20578;-60
2023/12/07 07:07:45;;;;;;;16.73;7.20;;;-1.80;99.90;;;;;;5016086;28;20206;-60
2023/12/07 07:10:12;;;;;;;18.03;8.17;;;-1.90;99.90;;;;;;5016135;28;20512;-60
2023/12/07 07:12:37;;;;;;;19.27;8.83;;;-1.90;99.90;;;;;;5016536;28;20213;-60
2023/12/07 07:15:03;;;;;;;18.63;8.90;;;-1.90;99.90;;;;;;5028242;28;20429;-60
2023/12/07 07:17:29;;;;;;;19.87;7.20;;;-2.00;99.90;;;;;;5035736;28;20186;-60
2023/12/07 07:19:55;;;;;;;15.13;8.40;;;-2.00;99.90;;;;;;5029180;28;20191;-60
2023/12/07 07:22:21;;;;;;;16.80;8.87;;;-2.00;99.90;;;;;;5022145;28;20174;-59
2023/12/07 07:24:47;;;;;;;20.80;8.63;;;-2.00;99.90;;;;;;5035844;28;20421;-59
2023/12/07 07:27:12;;;;;;;18.90;7.73;;;-1.90;99.90;;;;;;5018648;28;20244;-60
2023/12/07 07:29:38;;;;;;;20.83;10.80;;;-1.90;99.90;;;;;;5015932;28;20780;-60
2023/12/07 07:32:03;;;;;;;43.47;17.13;;;-2.00;99.90;;;;;;5034134;28;20220;-60
2023/12/07 07:34:29;;;;;;;21.07;11.53;;;-2.00;99.90;;;;;;5035189;28;20577;-60
2023/12/07 07:36:54;;;;;;;23.63;11.00;;;-1.90;99.90;;;;;;5036071;28;20166;-60
2023/12/07 07:39:20;;;;;;;20.93;9.63;;;-1.80;99.90;;;;;;5024378;28;20635;-60
2023/12/07 07:41:45;;;;;;;23.23;9.87;;;-1.90;99.90;;;;;;5015856;28;20654;-60
2023/12/07 07:44:11;;;;;;;22.93;10.00;;;-1.90;99.90;;;;;;5015759;28;20203;-60
2023/12/07 07:46:36;;;;;;;19.33;10.00;;;-1.90;99.90;;;;;;5027557;28;20194;-55
2023/12/07 07:49:03;;;;;;;18.27;8.83;;;-2.00;99.90;;;;;;5022603;28;20190;-55
2023/12/07 07:51:29;;;;;;;25.13;9.73;;;-2.00;99.90;;;;;;5013894;28;20210;-59
2023/12/07 07:53:55;;;;;;;15.20;6.53;;;-2.00;99.90;;;;;;5015652;28;20972;-60
2023/12/07 07:56:20;;;;;;;22.40;9.37;;;-2.00;99.90;;;;;;5019870;28;20533;-60
2023/12/07 07:58:47;;;;;;;20.43;9.00;;;-1.90;99.90;;;;;;5035149;28;20174;-60
2023/12/07 08:01:13;;;;;;;20.80;9.40;;;-1.90;99.90;;;;;;5029941;28;20187;-55
2023/12/07 08:03:38;;;;;;;17.93;9.10;;;-1.80;99.90;;;;;;5013365;28;20428;-55
2023/12/07 08:06:04;;;;;;;35.07;10.43;;;-1.80;99.90;;;;;;5013288;28;20930;-55
2023/12/07 08:08:30;;;;;;;22.13;8.50;;;-1.80;99.90;;;;;;5012941;28;20175;-55
2023/12/07 08:10:55;;;;;;;19.83;8.93;;;-1.70;99.90;;;;;;5013829;28;20202;-59
2023/12/07 08:13:21;;;;;;;13.70;7.43;;;-1.70;99.90;;;;;;5024020;28;20583;-60
2023/12/07 08:15:46;;;;;;;21.10;8.20;;;-1.60;99.90;;;;;;5016782;28;20183;-61
2023/12/07 08:18:12;;;;;;;16.00;7.90;;;-1.50;99.90;;;;;;5014969;28;20249;-61
2023/12/07 08:20:37;;;;;;;17.80;7.70;;;-1.50;99.90;;;;;;5014988;28;20218;-61
2023/12/07 08:23:03;;;;;;;24.43;9.93;;;-1.40;99.90;;;;;;5025606;28;20197;-61
2023/12/07 08:25:28;;;;;;;16.90;8.37;;;-1.30;99.90;;;;;;5021088;28;20198;-59
2023/12/07 08:27:54;;;;;;;18.73;8.43;;;-1.20;99.90;;;;;;5034287;28;20213;-61
2023/12/07 08:30:19;;;;;;;24.30;9.47;;;-1.20;99.90;;;;;;5017398;28;20221;-60
2023/12/07 08:32:45;;;;;;;18.37;8.97;;;-1.10;99.90;;;;;;5014543;28;20179;-61
2023/12/07 08:35:11;;;;;;;16.97;8.10;;;-0.80;99.90;;;;;;5014865;28;20206;-61
2023/12/07 08:37:39;;;;;;;20.80;9.20;;;-0.60;99.90;;;;;;5014749;28;20187;-61
2023/12/07 08:40:06;;;;;;;21.23;9.73;;;-0.50;99.90;;;;;;5018200;28;20225;-61
2023/12/07 08:42:31;;;;;;;23.20;10.00;;;-0.40;99.90;;;;;;5025614;28;20417;-61
2023/12/07 08:44:57;;;;;;;15.87;7.63;;;-0.30;99.90;;;;;;5016783;28;20418;-61
2023/12/07 08:47:23;;;;;;;18.03;8.33;;;-0.20;99.90;;;;;;5012767;28;20198;-55
2023/12/07 08:49:49;;;;;;;16.93;8.23;;;0.00;99.90;;;;;;5012844;28;20183;-55
2023/12/07 08:52:14;;;;;;;13.00;6.43;;;0.20;99.90;;;;;;5014003;28;20211;-61
2023/12/07 08:54:40;;;;;;;18.33;6.47;;;0.40;99.90;;;;;;5014306;28;20430;-61
2023/12/07 08:57:05;;;;;;;11.70;6.83;;;0.40;99.90;;;;;;5012408;28;20195;-56
2023/12/07 08:59:31;;;;;;;14.00;7.23;;;0.50;99.90;;;;;;5012086;28;20179;-56
2023/12/07 09:01:56;;;;;;;18.03;7.20;;;0.50;99.90;;;;;;5014050;28;20257;-60
2023/12/07 09:04:22;;;;;;;11.30;5.97;;;0.50;99.90;;;;;;5014271;28;20186;-61
2023/12/07 09:06:47;;;;;;;11.97;6.30;;;0.60;99.90;;;;;;5012696;28;20591;-56
2023/12/07 09:09:13;;;;;;;13.27;6.17;;;0.60;99.90;;;;;;5012237;28;20214;-56
2023/12/07 09:11:38;;;;;;;11.87;5.40;;;0.70;99.90;;;;;;5013699;28;20198;-62
2023/12/07 09:14:04;;;;;;;16.43;5.70;;;0.80;99.90;;;;;;5013898;28;20715;-61
2023/12/07 09:16:29;;;;;;;11.43;6.10;;;0.60;99.90;;;;;;5014353;28;20187;-62
2023/12/07 09:18:55;;;;;;;10.40;5.13;;;0.70;99.90;;;;;;5014439;28;20175;-61
2023/12/07 09:21:21;;;;;;;11.70;5.63;;;0.80;99.90;;;;;;5013245;28;20688;-56
2023/12/07 09:23:46;;;;;;;11.03;5.07;;;0.80;99.90;;;;;;5012200;28;20429;-56
2023/12/07 09:26:12;;;;;;;17.10;5.33;;;0.80;99.90;;;;;;5012075;28;20198;-56
2023/12/07 09:28:39;;;;;;;8.10;4.93;;;1.00;99.90;;;;;;5011826;28;20610;-56
2023/12/07 09:31:05;;;;;;;14.90;6.13;;;1.20;99.90;;;;;;5012675;28;20195;-62
2023/12/07 09:33:30;;;;;;;11.10;5.80;;;1.30;99.90;;;;;;5013819;28;20440;-62
2023/12/07 09:35:56;;;;;;;7.83;5.07;;;1.50;99.90;;;;;;5013286;28;20187;-56
2023/12/07 09:38:21;;;;;;;12.93;5.93;;;1.60;99.90;;;;;;5011907;28;20214;-57
2023/12/07 09:40:51;;;;;;;16.90;5.23;;;1.70;99.90;;;;;;5012398;28;20227;-60
2023/12/07 09:43:17;;;;;;;10.27;3.60;;;1.80;99.90;;;;;;5013664;28;20205;-60
2023/12/07 09:45:44;;;;;;;9.97;4.50;;;1.80;99.90;;;;;;5013955;28;20890;-60
2023/12/07 09:48:10;;;;;;;8.10;4.00;;;1.80;99.90;;;;;;5017700;28;20297;-61
2023/12/07 09:50:35;;;;;;;8.87;3.97;;;1.80;99.90;;;;;;5023993;28;21013;-62
2023/12/07 09:53:02;;;;;;;8.93;3.60;;;1.70;99.90;;;;;;5028793;28;20181;-61
2023/12/07 09:55:27;;;;;;;7.37;4.27;;;1.70;99.90;;;;;;5027829;28;20201;-56
2023/12/07 09:57:56;;;;;;;7.63;3.53;;;1.70;99.90;;;;;;5018002;28;20508;-56
2023/12/07 10:00:22;;;;;;;6.67;3.63;;;1.60;99.90;;;;;;5015789;28;20211;-60
2023/12/07 10:02:47;;;;;;;9.60;3.97;;;1.70;99.90;;;;;;5030441;28;20513;-61
2023/12/07 10:05:16;;;;;;;6.17;2.60;;;1.80;99.90;;;;;;5017118;28;20183;-61
2023/12/07 10:07:43;;;;;;;5.90;3.00;;;2.00;99.90;;;;;;5021455;28;20179;-61
2023/12/07 10:10:11;;;;;;;3.83;1.87;;;2.20;99.90;;;;;;5030384;28;20470;-61
2023/12/07 10:12:46;;;;;;;7.53;3.40;;;2.20;99.90;;;;;;5017789;28;20435;-61
2023/12/07 10:15:13;;;;;;;2.70;1.83;;;2.40;99.90;;;;;;5020520;28;20405;-61
2023/12/07 10:17:59;;;;;;;2.83;1.80;;;2.60;99.90;;;;;;5036214;28;20426;-61
2023/12/07 10:20:26;;;;;;;2.40;1.20;;;2.80;99.90;;;;;;5022890;28;20770;-61
2023/12/07 10:23:04;;;;;;;6.43;1.23;;;2.80;99.90;;;;;;5036195;28;20515;-61
2023/12/07 10:25:37;;;;;;;2.33;1.50;;;2.90;99.90;;;;;;5018379;28;20453;-61
2023/12/07 10:28:06;;;;;;;2.90;1.57;;;2.80;99.90;;;;;;5016292;28;20477;-61
2023/12/07 10:30:32;;;;;;;2.50;1.80;;;2.90;99.90;;;;;;5035308;28;20687;-61
2023/12/07 10:32:57;;;;;;;3.37;1.73;;;3.30;99.90;;;;;;5023187;28;20414;-61
2023/12/07 10:35:23;;;;;;;4.47;2.10;;;3.40;99.90;;;;;;5016210;28;20233;-60
2023/12/07 10:37:49;;;;;;;2.23;1.03;;;3.30;99.90;;;;;;5016767;28;20194;-62
2023/12/07 10:40:14;;;;;;;2.17;1.13;;;3.50;99.90;;;;;;5015967;28;20329;-62
2023/12/07 10:42:42;;;;;;;3.13;1.20;;;3.60;99.90;;;;;;5016158;28;20187;-62
2023/12/07 10:45:09;;;;;;;2.03;1.03;;;3.70;99.90;;;;;;5022154;28;21237;-62
2023/12/07 10:47:38;;;;;;;4.10;1.73;;;3.90;99.90;;;;;;5036115;28;20413;-62
2023/12/07 10:50:11;;;;;;;2.80;1.63;;;3.90;99.90;;;;;;5035824;28;20427;-62
2023/12/07 10:52:42;;;;;;;2.73;1.37;;;4.10;99.90;;;;;;5022236;28;20845;-62
2023/12/07 10:55:17;;;;;;;4.07;2.00;;;4.10;99.90;;;;;;5016415;28;20414;-62
2023/12/07 10:57:43;;;;;;;3.90;1.67;;;4.20;99.90;;;;;;5018463;28;20426;-62
2023/12/07 11:00:10;;;;;;;3.17;1.33;;;4.40;99.90;;;;;;5025838;28;20565;-62
2023/12/07 11:02:37;;;;;;;4.60;1.50;;;4.30;99.70;;;;;;5018514;28;20604;-62
2023/12/07 11:05:03;;;;;;;5.67;1.67;;;4.40;99.90;;;;;;5026034;28;20441;-59
2023/12/07 11:07:40;;;;;;;3.57;1.83;;;4.50;99.90;;;;;;5014324;28;20446;-56
2023/12/07 11:10:15;;;;;;;6.30;1.80;;;4.50;99.10;;;;;;5014647;28;20426;-60
2023/12/07 11:12:56;;;;;;;2.97;1.70;;;4.30;98.70;;;;;;5015727;28;20564;-61
2023/12/07 11:15:22;;;;;;;3.37;1.73;;;4.50;99.50;;;;;;5015690;28;20430;-61
2023/12/07 11:17:55;;;;;;;3.40;1.60;;;4.60;99.00;;;;;;5015683;28;20424;-61
2023/12/07 11:20:31;;;;;;;2.33;1.50;;;4.50;98.90;;;;;;5016243;28;20221;-61
2023/12/07 11:22:57;;;;;;;4.60;1.50;;;4.40;99.40;;;;;;5025741;28;20448;-62
2023/12/07 11:25:22;;;;;;;3.67;2.10;;;4.40;99.10;;;;;;5035554;28;20956;-62
2023/12/07 11:27:48;;;;;;;5.93;1.80;;;4.30;98.60;;;;;;5034240;28;20214;-61
2023/12/07 11:30:15;;;;;;;2.90;1.70;;;4.20;98.30;;;;;;5018479;28;20238;-61
2023/12/07 11:32:40;;;;;;;8.93;1.67;;;4.30;98.80;;;;;;5015218;28;20541;-61
2023/12/07 11:35:11;;;;;;;5.67;2.03;;;4.50;99.90;;;;;;5017904;28;20508;-61
2023/12/07 11:38:09;;;;;;;4.03;1.63;;;4.40;98.00;;;;;;5024105;28;20194;-61
2023/12/07 11:40:36;;;;;;;3.60;1.80;;;4.40;98.40;;;;;;5003564;28;20465;-61
2023/12/07 11:43:04;;;;;;;3.97;1.70;;;4.50;98.50;;;;;;5030314;28;20542;-61
2023/12/07 11:45:47;;;;;;;2.93;1.40;;;4.50;97.30;;;;;;5025718;28;20783;-57
2023/12/07 11:48:15;;;;;;;4.00;1.80;;;4.30;98.00;;;;;;5013579;28;20903;-57
2023/12/07 11:50:54;;;;;;;3.40;1.70;;;4.40;97.70;;;;;;5013268;28;20493;-61
2023/12/07 11:53:24;;;;;;;6.10;2.10;;;4.40;97.50;;;;;;5012852;28;20425;-61
2023/12/07 11:55:51;;;;;;;3.63;1.07;;;4.40;98.40;;;;;;5027514;28;21004;-57
2023/12/07 11:58:16;;;;;;;3.57;1.90;;;4.30;97.10;;;;;;5013283;28;20457;-56
2023/12/07 12:00:44;;;;;;;6.23;1.93;;;4.20;97.00;;;;;;5013707;28;20485;-61
2023/12/07 12:03:11;;;;;;;2.53;1.47;;;4.10;96.60;;;;;;5014669;28;20643;-62
2023/12/07 12:05:38;;;;;;;2.67;1.57;;;4.10;97.20;;;;;;5027777;28;20433;-62
2023/12/07 12:08:04;;;;;;;2.70;1.50;;;4.10;97.20;;;;;;5014993;28;20774;-62
2023/12/07 12:10:30;;;;;;;3.87;1.43;;;4.00;97.30;;;;;;5019730;28;20477;-62
2023/12/07 12:12:55;;;;;;;4.53;1.20;;;4.00;97.60;;;;;;5013034;28;20469;-62
2023/12/07 12:15:21;;;;;;;3.20;1.60;;;4.00;97.80;;;;;;5013853;28;20188;-62
2023/12/07 12:17:46;;;;;;;4.10;1.73;;;4.10;97.50;;;;;;5013969;28;20187;-62
2023/12/07 12:20:17;;;;;;;4.80;1.67;;;4.20;97.70;;;;;;5014276;28;20191;-62
2023/12/07 12:22:43;;;;;;;3.57;2.03;;;4.20;97.20;;;;;;5014323;28;20191;-62
2023/12/07 12:25:09;;;;;;;2.57;1.97;;;4.30;97.00;;;;;;5015571;28;20914;-62
2023/12/07 12:27:35;;;;;;;3.23;1.70;;;4.30;96.80;;;;;;5013966;28;20464;-62
2023/12/07 12:30:01;;;;;;;3.47;1.43;;;4.30;97.40;;;;;;5013635;28;20659;-62
2023/12/07 12:32:27;;;;;;;3.20;1.67;;;4.40;96.90;;;;;;5014010;28;20509;-62
2023/12/07 12:34:53;;;;;;;3.10;1.60;;;4.30;96.60;;;;;;5029396;28;20455;-62
2023/12/07 12:37:18;;;;;;;3.20;1.67;;;4.20;96.90;;;;;;5032444;28;20178;-62
2023/12/07 12:39:44;;;;;;;3.33;2.00;;;4.10;96.80;;;;;;5020114;28;20273;-62
2023/12/07 12:42:11;;;;;;;4.20;1.63;;;4.00;97.00;;;;;;5024570;28;20190;-62
2023/12/07 12:44:38;;;;;;;5.83;2.63;;;4.00;97.00;;;;;;5013735;28;20186;-62